createdAt,value
2022-10-09T00:03:59.798Z,20.13
2022-10-09T00:08:01.647Z,24.42
2022-10-09T00:12:03.736Z,16.95
2022-10-09T00:16:07.867Z,18.80
2022-10-09T00:20:10.449Z,20.55
2022-10-09T00:24:12.216Z,19.35
2022-10-09T00:28:14.111Z,19.83
2022-10-09T00:32:16.496Z,16.83
2022-10-09T00:36:22.195Z,20.05
2022-10-09T00:40:24.987Z,14.77
2022-10-09T00:44:51.556Z,17.10
2022-10-09T00:49:01.426Z,16.80
2022-10-09T00:53:03.635Z,19.13
2022-10-09T00:57:05.634Z,13.85
2022-10-09T01:01:07.520Z,15.50
2022-10-09T01:05:10.863Z,14.27
2022-10-09T01:09:22.821Z,13.98
2022-10-09T01:13:36.099Z,10.95
2022-10-09T01:17:44.780Z,11.32
2022-10-09T01:21:55.835Z,13.70
2022-10-09T01:26:26.840Z,14.77
2022-10-09T01:30:29.538Z,18.58
2022-10-09T01:34:33.047Z,14.35
2022-10-09T01:38:35.126Z,21.02
2022-10-09T01:42:37.040Z,13.45
2022-10-09T01:46:39.112Z,20.95
2022-10-09T01:50:45.646Z,12.43
2022-10-09T01:55:18.949Z,15.57
2022-10-09T01:59:21.285Z,17.95
2022-10-09T02:03:25.829Z,16.90
2022-10-09T02:07:29.656Z,19.88
2022-10-09T02:11:33.342Z,21.10
2022-10-09T02:15:47.580Z,20.15
2022-10-09T02:19:59.473Z,19.88
2022-10-09T02:24:02.202Z,19.75
2022-10-09T02:28:04.699Z,14.60
2022-10-09T02:32:06.725Z,25.98
2022-10-09T02:36:08.763Z,17.58
2022-10-09T02:40:11.120Z,21.48
2022-10-09T02:44:12.855Z,16.27
2022-10-09T02:48:14.741Z,14.52
2022-10-09T02:52:16.401Z,20.30
2022-10-09T02:56:18.224Z,14.93
2022-10-09T03:00:20.150Z,22.05
2022-10-09T03:04:22.040Z,23.73
2022-10-09T03:08:23.880Z,17.35
2022-10-09T03:12:25.889Z,19.17
2022-10-09T03:16:28.442Z,20.83
2022-10-09T03:20:55.721Z,31.55
2022-10-09T03:24:57.489Z,18.52
2022-10-09T03:28:59.351Z,23.23
2022-10-09T03:33:01.240Z,25.40
2022-10-09T03:37:02.928Z,26.42
2022-10-09T03:41:05.731Z,20.48
2022-10-09T03:45:08.014Z,18.48
2022-10-09T03:49:09.954Z,22.58
2022-10-09T03:53:13.085Z,21.25
2022-10-09T03:57:15.446Z,19.40
2022-10-09T04:01:17.126Z,21.35
2022-10-09T04:05:19.174Z,17.75
2022-10-09T04:09:20.803Z,20.58
2022-10-09T04:13:22.765Z,21.27
2022-10-09T04:17:24.423Z,17.27
2022-10-09T04:21:26.495Z,24.13
2022-10-09T04:25:29.373Z,26.95
2022-10-09T04:29:31.601Z,17.83
2022-10-09T04:33:33.343Z,21.23
2022-10-09T04:37:36.721Z,27.38
2022-10-09T04:41:38.911Z,25.20
2022-10-09T04:45:41.175Z,22.42
2022-10-09T04:49:42.832Z,26.23
2022-10-09T04:53:45.500Z,25.48
2022-10-09T04:57:47.201Z,24.77
2022-10-09T05:01:49.088Z,31.95
2022-10-09T05:05:50.892Z,28.60
2022-10-09T05:09:52.748Z,27.08
2022-10-09T05:13:56.100Z,33.20
2022-10-09T05:17:58.064Z,24.00
2022-10-09T05:22:01.007Z,25.13
2022-10-09T05:26:06.398Z,27.25
2022-10-09T05:30:09.287Z,34.13
2022-10-09T05:34:11.488Z,32.25
2022-10-09T05:38:13.124Z,28.50
2022-10-09T05:42:15.165Z,27.15
2022-10-09T05:46:23.721Z,23.15
2022-10-09T05:54:27.581Z,27.40
2022-10-09T05:58:29.512Z,22.88
2022-10-09T06:02:31.204Z,28.50
2022-10-09T06:06:37.094Z,27.77
2022-10-09T06:10:38.740Z,25.50
2022-10-09T06:14:40.575Z,19.08
2022-10-09T06:18:48.701Z,21.52
2022-10-09T06:22:51.437Z,22.17
2022-10-09T06:26:53.308Z,24.00
2022-10-09T06:31:04.154Z,20.13
2022-10-09T06:35:06.862Z,25.10
2022-10-09T06:39:10.746Z,21.15
2022-10-09T06:43:12.462Z,20.27
2022-10-09T06:47:14.287Z,19.88
2022-10-09T06:51:19.267Z,13.35
2022-10-09T06:55:24.049Z,12.38
2022-10-09T06:59:28.121Z,16.05
2022-10-09T07:03:30.068Z,16.95
2022-10-09T07:07:32.009Z,15.70
2022-10-09T07:11:36.500Z,11.70
2022-10-09T07:15:45.043Z,15.35
2022-10-09T07:23:50.674Z,13.95
2022-10-09T07:27:52.477Z,12.20
2022-10-09T07:31:54.338Z,13.88
2022-10-09T07:35:57.995Z,14.48
2022-10-09T07:39:59.645Z,14.82
2022-10-09T07:44:01.715Z,11.93
2022-10-09T07:48:04.063Z,5.57
2022-10-09T07:52:05.862Z,10.57
2022-10-09T07:56:13.156Z,10.60
2022-10-09T08:00:15.068Z,12.10
2022-10-09T08:04:16.672Z,7.85
2022-10-09T08:08:18.822Z,5.97
2022-10-09T08:12:20.502Z,6.20
2022-10-09T08:16:23.525Z,8.45
2022-10-09T08:20:25.213Z,7.07
2022-10-09T08:24:27.237Z,7.25
2022-10-09T08:28:29.004Z,10.88
2022-10-09T08:32:31.168Z,10.82
2022-10-09T08:36:32.969Z,7.78
2022-10-09T08:40:53.839Z,10.18
2022-10-09T08:44:59.260Z,9.75
2022-10-09T08:49:04.627Z,12.50
2022-10-09T08:53:36.888Z,15.45
2022-10-09T08:57:39.190Z,8.55
2022-10-09T09:02:02.555Z,14.05
2022-10-09T09:06:16.192Z,3.80
2022-10-09T09:10:46.087Z,8.80
2022-10-09T09:15:07.069Z,7.43
2022-10-09T09:19:46.318Z,6.68
2022-10-09T09:23:48.901Z,6.13
2022-10-09T09:27:53.976Z,7.10
2022-10-09T09:31:59.856Z,10.77
2022-10-09T09:36:10.839Z,8.10
2022-10-09T09:40:36.195Z,7.75
2022-10-09T09:44:44.958Z,16.58
2022-10-09T09:48:48.904Z,11.20
2022-10-09T09:52:50.914Z,9.80
2022-10-09T09:57:15.901Z,15.82
2022-10-09T10:01:27.304Z,10.27
2022-10-09T10:05:36.526Z,16.90
2022-10-09T10:09:38.169Z,16.35
2022-10-09T10:13:49.212Z,9.60
2022-10-09T10:17:58.302Z,10.85
2022-10-09T10:22:06.552Z,7.10
2022-10-09T10:26:36.656Z,7.30
2022-10-09T10:30:39.313Z,6.85
2022-10-09T10:35:04.818Z,9.82
2022-10-09T10:39:13.003Z,7.78
2022-10-09T10:43:22.473Z,14.43
2022-10-09T10:47:28.282Z,9.50
2022-10-09T10:51:38.958Z,11.68
2022-10-09T10:56:04.135Z,8.25
2022-10-09T11:00:10.966Z,20.02
2022-10-09T11:04:24.697Z,23.42
2022-10-09T11:08:37.127Z,18.60
2022-10-09T11:12:56.237Z,18.42
2022-10-09T11:17:06.728Z,15.82
2022-10-09T11:21:12.948Z,19.08
2022-10-09T11:25:34.068Z,9.85
2022-10-09T11:29:47.255Z,14.30
2022-10-09T11:33:52.282Z,8.18
2022-10-09T11:38:01.225Z,7.18
2022-10-09T11:42:03.424Z,6.85
2022-10-09T11:46:18.670Z,9.63
2022-10-09T11:50:39.765Z,10.35
2022-10-09T11:54:41.971Z,10.45
2022-10-09T11:58:43.634Z,8.38
2022-10-09T12:02:58.857Z,9.35
2022-10-09T12:07:03.822Z,8.73
2022-10-09T12:11:16.620Z,11.95
2022-10-09T12:15:37.980Z,12.68
2022-10-09T12:19:41.022Z,15.00
2022-10-09T12:23:42.839Z,10.40
2022-10-09T12:27:45.339Z,13.32
2022-10-09T12:31:51.430Z,13.85
2022-10-09T12:36:05.276Z,12.63
2022-10-09T12:40:20.948Z,19.10
2022-10-09T12:44:35.766Z,11.02
2022-10-09T12:48:41.210Z,13.68
2022-10-09T12:52:55.148Z,8.43
2022-10-09T12:56:59.247Z,8.50
2022-10-09T13:01:04.880Z,12.57
2022-10-09T13:05:07.036Z,7.93
2022-10-09T13:09:19.995Z,8.60
2022-10-09T13:13:26.577Z,10.75
2022-10-09T13:17:38.603Z,11.57
2022-10-09T13:21:40.433Z,10.18
2022-10-09T13:25:44.182Z,8.15
2022-10-09T13:29:47.654Z,5.28
2022-10-09T13:33:49.934Z,58.78
2022-10-09T13:37:52.203Z,7.07
2022-10-09T13:41:55.903Z,43.67
2022-10-09T13:45:58.146Z,105.75
2022-10-09T13:50:00.043Z,19.40
2022-10-09T13:54:01.895Z,11.90
2022-10-09T13:58:04.500Z,6.40
2022-10-09T14:02:06.639Z,11.00
2022-10-09T14:06:08.742Z,9.65
2022-10-09T14:10:10.728Z,11.23
2022-10-09T14:14:12.907Z,9.27
2022-10-09T14:18:14.825Z,10.95
2022-10-09T14:22:16.953Z,10.85
2022-10-09T14:26:18.707Z,10.43
2022-10-09T14:30:20.579Z,11.68
2022-10-09T14:34:22.435Z,11.68
2022-10-09T14:38:24.236Z,12.45
2022-10-09T14:42:25.935Z,20.63
2022-10-09T14:46:29.488Z,19.42
2022-10-09T14:50:31.228Z,23.42
2022-10-09T14:54:33.076Z,14.38
2022-10-09T14:58:36.430Z,23.48
2022-10-09T15:02:38.692Z,19.48
2022-10-09T15:06:40.521Z,15.90
2022-10-09T15:10:43.489Z,9.75
2022-10-09T15:14:45.113Z,27.45
2022-10-09T15:18:50.084Z,16.00
2022-10-09T15:22:51.893Z,48.50
2022-10-09T15:26:53.686Z,20.23
2022-10-09T15:31:00.053Z,72.85
2022-10-09T15:35:02.004Z,54.88
2022-10-09T15:39:07.243Z,200.18
2022-10-09T15:43:09.151Z,28.13
2022-10-09T15:47:16.401Z,52.05
2022-10-09T15:51:19.661Z,36.75
2022-10-09T15:55:21.362Z,40.15
2022-10-09T15:59:23.312Z,37.58
2022-10-09T16:03:24.899Z,51.83
2022-10-09T16:07:26.809Z,53.35
2022-10-09T16:11:28.582Z,50.25
2022-10-09T16:15:30.689Z,57.60
2022-10-09T16:19:32.339Z,81.15
2022-10-09T16:23:35.031Z,102.07
2022-10-09T16:27:36.799Z,69.75
2022-10-09T16:31:38.888Z,95.70
2022-10-09T16:35:40.766Z,180.52
2022-10-09T16:39:42.627Z,113.68
2022-10-09T16:43:46.417Z,35.50
2022-10-09T16:47:48.742Z,28.13
2022-10-09T16:51:50.816Z,30.83
2022-10-09T16:55:52.674Z,32.17
2022-10-09T16:59:54.378Z,48.13
2022-10-09T17:03:58.126Z,54.30
2022-10-09T17:08:00.134Z,43.72
2022-10-09T17:12:02.182Z,42.67
2022-10-09T17:16:08.956Z,49.92
2022-10-09T17:20:10.964Z,35.67
2022-10-09T17:24:15.991Z,35.78
2022-10-09T17:28:17.922Z,38.33
2022-10-09T17:32:19.647Z,28.05
2022-10-09T17:36:23.782Z,43.72
2022-10-09T17:40:25.570Z,39.85
2022-10-09T17:44:30.130Z,53.20
2022-10-09T17:48:35.761Z,49.28
2022-10-09T17:52:37.730Z,59.33
2022-10-09T17:56:40.221Z,41.42
2022-10-09T18:00:42.617Z,36.45
2022-10-09T18:04:44.348Z,32.63
2022-10-09T18:08:46.498Z,34.28
2022-10-09T18:12:48.390Z,33.80
2022-10-09T18:16:50.429Z,37.22
2022-10-09T18:20:52.065Z,42.67
2022-10-09T18:24:54.166Z,38.40
2022-10-09T18:28:55.869Z,43.38
2022-10-09T18:32:57.787Z,35.85
2022-10-09T18:36:59.709Z,35.55
2022-10-09T18:41:02.376Z,31.98
2022-10-09T18:45:04.516Z,36.80
2022-10-09T18:49:09.909Z,35.40
2022-10-09T18:53:12.086Z,60.35
2022-10-09T18:57:14.071Z,98.50
2022-10-09T19:01:16.136Z,89.47
2022-10-09T19:05:18.346Z,104.38
2022-10-09T19:09:20.741Z,122.43
2022-10-09T19:13:22.902Z,109.13
2022-10-09T19:17:24.663Z,136.52
2022-10-09T19:21:26.551Z,122.55
2022-10-09T19:25:28.381Z,122.35
2022-10-09T19:29:30.603Z,118.30
2022-10-09T19:33:32.652Z,110.70
2022-10-09T19:37:34.694Z,109.28
2022-10-09T19:41:36.521Z,104.90
2022-10-09T19:45:38.750Z,125.78
2022-10-09T19:49:41.218Z,116.68
2022-10-09T19:53:43.692Z,107.32
2022-10-09T19:57:45.400Z,107.60
2022-10-09T20:01:47.492Z,109.70
2022-10-09T20:05:49.129Z,101.60
2022-10-09T20:09:51.000Z,110.97
2022-10-09T20:13:56.006Z,122.68
2022-10-09T20:17:58.379Z,123.03
2022-10-09T20:22:00.015Z,132.35
2022-10-09T20:26:09.578Z,124.90
2022-10-09T20:30:12.105Z,132.93
2022-10-09T20:34:13.979Z,122.00
2022-10-09T20:38:15.974Z,119.50
2022-10-09T20:42:17.815Z,115.60
2022-10-09T20:46:21.347Z,135.65
2022-10-09T20:50:23.372Z,115.15
2022-10-09T20:54:25.270Z,122.55
2022-10-09T20:58:27.432Z,197.63
2022-10-09T21:02:29.269Z,192.10
2022-10-09T21:06:31.232Z,193.75
2022-10-09T21:10:32.912Z,217.07
2022-10-09T21:14:36.112Z,193.40
2022-10-09T21:18:38.959Z,184.48
2022-10-09T21:22:42.031Z,256.25
2022-10-09T21:26:47.423Z,201.80
2022-10-09T21:30:50.048Z,147.40
2022-10-09T21:34:51.761Z,173.75
2022-10-09T21:38:53.672Z,160.85
2022-10-09T21:42:55.253Z,251.13
2022-10-09T21:46:57.297Z,181.80
2022-10-09T21:50:59.015Z,258.48
2022-10-09T21:55:00.880Z,258.00
2022-10-09T21:59:02.597Z,286.63
2022-10-09T22:03:04.679Z,272.65
2022-10-09T22:07:06.349Z,230.43
2022-10-09T22:11:10.005Z,218.85
2022-10-09T22:15:11.806Z,195.35
2022-10-09T22:19:14.284Z,177.10
2022-10-09T22:23:18.235Z,157.10
2022-10-09T22:27:20.178Z,148.13
2022-10-09T22:31:24.279Z,129.73
2022-10-09T22:35:26.934Z,132.02
2022-10-09T22:39:29.343Z,139.20
2022-10-09T22:43:31.626Z,130.35
2022-10-09T22:47:33.451Z,129.18
2022-10-09T22:51:35.513Z,124.72
2022-10-09T22:55:41.220Z,127.03
2022-10-09T22:59:43.130Z,108.22
2022-10-09T23:03:45.333Z,115.15
2022-10-09T23:07:47.223Z,117.60
2022-10-09T23:11:48.914Z,96.55
2022-10-09T23:15:51.202Z,107.88
2022-10-09T23:19:52.848Z,124.45
2022-10-09T23:23:55.580Z,130.05
2022-10-09T23:27:57.261Z,100.07
2022-10-09T23:31:59.121Z,121.38
2022-10-09T23:36:04.556Z,88.30
2022-10-09T23:40:07.011Z,102.95
2022-10-09T23:44:08.745Z,124.85
2022-10-09T23:48:10.649Z,93.70
2022-10-09T23:52:12.530Z,111.35
2022-10-09T23:56:22.143Z,125.13
